North Platte, Nebraska
Current Conditions -  °F | °C
As of 12:53 PM on Saturday 20 Dec 2014 (Local Time) from KLBF Reporting Station
Clear Clear  
Wind Chill: 29°   Ceiling: Unl
Heat Index: 36°   Visibility: 10mi
Dew Point: 26°   Wind: 9mph
Humidity: 67%   Direction: 270°W
Pressure: 29.97"   Gusts: NA
Location:  41.14°N, 100.76°W
Report Text: KLBF 201853Z AUTO 27008KT 10SM CLR 02/M03 A2997 RMK AO2 SLP177 T00221033
Loading
Personal Weather Stations






























Interactive Weather Map New forecast layout! Learn more

10-Day Weather Forecast

Advertisements
Track Severe Weather on mobile